createdAt,value
2022-11-02T00:00:43.448Z,11.90
2022-11-02T00:03:11.986Z,11.81
2022-11-02T00:05:41.210Z,11.75
2022-11-02T00:08:10.025Z,11.80
2022-11-02T00:10:38.509Z,11.82
2022-11-02T00:13:07.807Z,11.86
2022-11-02T00:15:39.035Z,11.82
2022-11-02T00:18:11.700Z,11.78
2022-11-02T00:20:42.588Z,11.74
2022-11-02T00:23:14.045Z,11.70
2022-11-02T00:25:48.029Z,11.59
2022-11-02T00:28:17.297Z,11.66
2022-11-02T00:30:48.446Z,11.68
2022-11-02T00:33:17.274Z,11.72
2022-11-02T00:35:46.268Z,11.67
2022-11-02T00:38:15.269Z,11.60
2022-11-02T00:40:43.926Z,11.52
2022-11-02T00:43:13.534Z,11.59
2022-11-02T00:45:42.494Z,11.62
2022-11-02T00:48:12.898Z,11.65
2022-11-02T00:50:42.642Z,11.63
2022-11-02T00:53:11.004Z,11.64
2022-11-02T00:55:45.424Z,11.63
2022-11-02T00:58:14.529Z,11.62
2022-11-02T01:00:43.086Z,11.52
2022-11-02T01:03:13.315Z,11.55
2022-11-02T01:05:41.733Z,11.55
2022-11-02T01:08:10.973Z,11.56
2022-11-02T01:10:42.737Z,11.55
2022-11-02T01:13:14.860Z,11.41
2022-11-02T01:15:43.823Z,11.28
2022-11-02T01:18:13.918Z,11.28
2022-11-02T01:20:42.400Z,11.20
2022-11-02T01:23:11.278Z,11.18
2022-11-02T01:25:46.445Z,11.12
2022-11-02T01:28:15.058Z,11.07
2022-11-02T01:30:44.802Z,11.04
2022-11-02T01:33:15.741Z,11.07
2022-11-02T01:35:44.152Z,11.05
2022-11-02T01:38:13.648Z,11.09
2022-11-02T01:40:42.682Z,11.15
2022-11-02T01:43:22.484Z,11.20
2022-11-02T01:45:55.621Z,11.28
2022-11-02T01:48:32.049Z,11.32
2022-11-02T01:51:04.241Z,11.32
2022-11-02T01:53:35.474Z,11.24
2022-11-02T01:56:05.788Z,11.18
2022-11-02T01:58:35.264Z,11.19
2022-11-02T02:01:04.644Z,11.23
2022-11-02T02:03:36.313Z,11.27
2022-11-02T02:06:11.398Z,11.30
2022-11-02T02:08:44.831Z,11.32
2022-11-02T02:11:26.991Z,11.35
2022-11-02T02:13:58.380Z,11.33
2022-11-02T02:16:38.114Z,11.35
2022-11-02T02:19:18.114Z,11.35
2022-11-02T02:22:00.003Z,11.32
2022-11-02T02:24:45.668Z,11.33
2022-11-02T02:27:23.324Z,11.23
2022-11-02T02:30:04.274Z,11.27
2022-11-02T02:32:40.419Z,11.11
2022-11-02T02:35:16.871Z,11.07
2022-11-02T02:37:53.786Z,10.98
2022-11-02T02:40:26.643Z,10.95
2022-11-02T02:42:58.782Z,10.98
2022-11-02T02:45:36.308Z,11.04
2022-11-02T02:48:10.519Z,11.03
2022-11-02T02:50:45.516Z,11.01
2022-11-02T02:53:16.649Z,11.01
2022-11-02T02:55:47.671Z,10.99
2022-11-02T02:58:22.560Z,10.92
2022-11-02T03:00:54.045Z,10.90
2022-11-02T03:03:27.523Z,10.94
2022-11-02T03:06:07.316Z,10.95
2022-11-02T03:08:40.227Z,10.94
2022-11-02T03:11:16.070Z,10.88
2022-11-02T03:14:02.590Z,10.71
2022-11-02T03:16:55.140Z,10.78
2022-11-02T03:19:35.055Z,10.78
2022-11-02T03:22:09.632Z,10.81
2022-11-02T03:24:45.448Z,10.85
2022-11-02T03:27:21.002Z,10.76
2022-11-02T03:29:56.426Z,10.60
2022-11-02T03:32:31.335Z,10.47
2022-11-02T03:35:05.875Z,10.48
2022-11-02T03:37:40.035Z,10.51
2022-11-02T03:40:16.369Z,10.51
2022-11-02T03:42:48.124Z,10.54
2022-11-02T03:45:20.709Z,10.57
2022-11-02T03:47:55.133Z,10.64
2022-11-02T03:50:25.225Z,10.67
2022-11-02T03:52:59.130Z,10.66
2022-11-02T03:55:34.655Z,10.58
2022-11-02T03:58:04.766Z,10.49
2022-11-02T04:00:36.042Z,10.43
2022-11-02T04:03:13.507Z,10.45
2022-11-02T04:05:46.085Z,10.45
2022-11-02T04:08:35.581Z,10.45
2022-11-02T04:11:25.250Z,10.46
2022-11-02T04:14:13.232Z,10.52
2022-11-02T04:16:45.000Z,10.41
2022-11-02T04:19:30.357Z,10.50
2022-11-02T04:22:21.987Z,10.42
2022-11-02T04:25:13.519Z,10.42
2022-11-02T04:27:44.803Z,10.38
2022-11-02T04:30:15.860Z,10.30
2022-11-02T04:33:03.992Z,10.24
2022-11-02T04:35:39.602Z,10.21
2022-11-02T04:38:26.814Z,10.16
2022-11-02T04:41:14.935Z,10.18
2022-11-02T04:43:46.318Z,10.20
2022-11-02T04:46:16.753Z,10.17
2022-11-02T04:48:47.525Z,10.14
2022-11-02T04:51:18.020Z,10.02
2022-11-02T04:53:46.673Z,10.09
2022-11-02T04:56:15.328Z,10.08
2022-11-02T04:58:44.783Z,10.02
2022-11-02T05:01:15.885Z,9.88
2022-11-02T05:03:48.502Z,9.97
2022-11-02T05:06:19.849Z,9.93
2022-11-02T05:08:49.927Z,9.97
2022-11-02T05:11:19.404Z,9.94
2022-11-02T05:13:50.147Z,9.97
2022-11-02T05:16:19.979Z,9.99
2022-11-02T05:18:51.985Z,9.96
2022-11-02T05:21:22.917Z,9.99
2022-11-02T05:23:53.054Z,9.96
2022-11-02T05:26:22.580Z,9.95
2022-11-02T05:28:52.687Z,9.97
2022-11-02T05:31:23.098Z,10.03
2022-11-02T05:33:51.948Z,10.04
2022-11-02T05:36:25.222Z,10.03
2022-11-02T05:38:54.438Z,10.04
2022-11-02T05:41:24.287Z,10.03
2022-11-02T05:43:56.161Z,10.03
2022-11-02T05:46:27.334Z,10.03
2022-11-02T05:48:55.785Z,9.99
2022-11-02T05:51:26.396Z,9.89
2022-11-02T05:53:54.786Z,9.81
2022-11-02T05:56:25.209Z,9.77
2022-11-02T05:58:55.455Z,9.77
2022-11-02T06:01:24.388Z,9.74
2022-11-02T06:03:53.977Z,9.77
2022-11-02T06:06:23.101Z,9.64
2022-11-02T06:08:53.479Z,9.65
2022-11-02T06:11:22.448Z,9.64
2022-11-02T06:13:51.923Z,9.64
2022-11-02T06:16:23.305Z,9.66
2022-11-02T06:18:52.033Z,9.67
2022-11-02T06:21:20.988Z,9.64
2022-11-02T06:23:49.452Z,9.66
2022-11-02T06:26:19.873Z,9.57
2022-11-02T06:28:48.701Z,9.73
2022-11-02T06:31:18.044Z,9.72
2022-11-02T06:33:47.103Z,9.76
2022-11-02T06:36:15.486Z,9.77
2022-11-02T06:38:46.355Z,9.74
2022-11-02T06:41:15.650Z,9.66
2022-11-02T06:43:45.445Z,9.61
2022-11-02T06:46:14.241Z,9.65
2022-11-02T06:48:42.583Z,9.74
2022-11-02T06:51:10.979Z,9.83
2022-11-02T06:53:39.420Z,9.90
2022-11-02T06:56:08.510Z,9.94
2022-11-02T06:58:37.009Z,10.00
2022-11-02T07:01:09.058Z,10.08
2022-11-02T07:03:37.909Z,10.13
2022-11-02T07:06:12.689Z,10.20
2022-11-02T07:08:42.774Z,10.21
2022-11-02T07:11:15.059Z,10.25
2022-11-02T07:13:43.637Z,10.25
2022-11-02T07:16:13.896Z,10.28
2022-11-02T07:18:42.793Z,10.30
2022-11-02T07:21:12.059Z,10.39
2022-11-02T07:23:40.543Z,10.41
2022-11-02T07:26:08.965Z,10.52
2022-11-02T07:28:38.390Z,10.62
2022-11-02T07:31:07.202Z,10.70
2022-11-02T07:33:36.949Z,10.65
2022-11-02T07:36:06.419Z,10.66
2022-11-02T07:38:35.665Z,10.71
2022-11-02T07:41:04.595Z,10.84
2022-11-02T07:43:33.848Z,10.92
2022-11-02T07:46:26.705Z,11.02
2022-11-02T07:48:57.499Z,11.08
2022-11-02T07:51:26.090Z,11.16
2022-11-02T07:53:54.463Z,11.26
2022-11-02T07:56:23.109Z,11.37
2022-11-02T07:58:51.700Z,11.44
2022-11-02T08:01:20.368Z,11.56
2022-11-02T08:03:49.658Z,11.68
2022-11-02T08:06:19.369Z,11.85
2022-11-02T08:08:49.244Z,12.13
2022-11-02T08:11:18.043Z,12.42
2022-11-02T08:13:46.471Z,12.48
2022-11-02T08:16:14.916Z,12.46
2022-11-02T08:18:43.319Z,12.59
2022-11-02T08:21:11.665Z,12.82
2022-11-02T08:23:41.529Z,13.11
2022-11-02T08:26:09.872Z,13.41
2022-11-02T08:28:40.637Z,13.70
2022-11-02T08:31:15.851Z,13.96
2022-11-02T08:33:45.216Z,14.15
2022-11-02T08:36:13.609Z,14.37
2022-11-02T08:38:44.213Z,14.59
2022-11-02T08:41:12.621Z,14.81
2022-11-02T08:43:40.988Z,15.00
2022-11-02T08:46:15.209Z,15.14
2022-11-02T08:48:45.273Z,15.33
2022-11-02T08:51:13.778Z,15.54
2022-11-02T08:53:50.252Z,15.67
2022-11-02T08:56:19.889Z,15.71
2022-11-02T08:58:48.347Z,15.78
2022-11-02T09:01:17.243Z,15.96
2022-11-02T09:03:45.706Z,15.99
2022-11-02T09:06:14.101Z,16.22
2022-11-02T09:08:43.926Z,16.42
2022-11-02T09:11:12.565Z,16.57
2022-11-02T09:13:41.561Z,16.74
2022-11-02T09:16:10.265Z,16.93
2022-11-02T09:18:39.420Z,17.06
2022-11-02T09:21:07.993Z,17.19
2022-11-02T09:23:36.356Z,17.26
2022-11-02T09:26:07.518Z,17.29
2022-11-02T09:28:35.989Z,17.13
2022-11-02T09:31:07.482Z,16.76
2022-11-02T09:33:39.117Z,16.42
2022-11-02T09:36:08.102Z,16.29
2022-11-02T09:38:36.543Z,16.14
2022-11-02T09:41:14.644Z,16.07
2022-11-02T09:43:55.046Z,16.00
2022-11-02T09:46:27.582Z,16.02
2022-11-02T09:48:59.933Z,16.01
2022-11-02T09:51:32.893Z,16.53
2022-11-02T09:54:13.102Z,16.68
2022-11-02T09:56:48.081Z,16.55
2022-11-02T09:59:18.010Z,16.36
2022-11-02T10:01:57.213Z,16.16
2022-11-02T10:04:56.133Z,16.04
2022-11-02T10:07:39.339Z,16.01
2022-11-02T10:10:15.079Z,15.98
2022-11-02T10:12:55.613Z,16.00
2022-11-02T10:15:29.763Z,15.93
2022-11-02T10:18:01.475Z,16.04
2022-11-02T10:20:35.727Z,16.17
2022-11-02T10:23:09.016Z,16.17
2022-11-02T10:25:38.557Z,16.26
2022-11-02T10:28:15.448Z,16.27
2022-11-02T10:30:45.558Z,16.62
2022-11-02T10:33:16.113Z,17.24
2022-11-02T10:36:19.903Z,17.47
2022-11-02T10:38:51.754Z,17.88
2022-11-02T10:41:44.866Z,18.37
2022-11-02T10:44:28.178Z,18.51
2022-11-02T10:47:10.498Z,17.97
2022-11-02T10:50:10.993Z,17.42
2022-11-02T10:52:43.413Z,17.26
2022-11-02T10:55:24.676Z,17.15
2022-11-02T10:57:56.448Z,17.02
2022-11-02T11:00:37.493Z,17.46
2022-11-02T11:03:08.395Z,18.02
2022-11-02T11:05:44.668Z,18.13
2022-11-02T11:08:32.777Z,17.86
2022-11-02T11:11:19.306Z,17.72
2022-11-02T11:16:48.425Z,18.05
2022-11-02T11:19:39.717Z,18.15
2022-11-02T11:22:25.770Z,17.85
2022-11-02T11:24:55.031Z,17.49
2022-11-02T11:27:24.565Z,17.32
2022-11-02T11:29:56.063Z,17.35
2022-11-02T11:32:30.544Z,17.42
2022-11-02T11:35:02.989Z,17.43
2022-11-02T11:37:32.673Z,17.43
2022-11-02T11:40:04.107Z,17.37
2022-11-02T11:42:37.192Z,17.26
2022-11-02T11:45:09.125Z,17.11
2022-11-02T11:47:41.894Z,17.06
2022-11-02T11:50:18.487Z,17.09
2022-11-02T11:53:10.270Z,17.03
2022-11-02T11:55:48.952Z,16.90
2022-11-02T11:58:21.486Z,16.82
2022-11-02T12:01:09.240Z,16.76
2022-11-02T12:03:54.193Z,16.82
2022-11-02T12:06:31.944Z,17.01
2022-11-02T12:09:08.496Z,17.12
2022-11-02T12:11:51.753Z,17.30
2022-11-02T12:14:34.776Z,17.56
2022-11-02T12:17:30.189Z,17.93
2022-11-02T12:20:11.842Z,18.08
2022-11-02T12:22:51.041Z,18.17
2022-11-02T12:25:32.435Z,18.33
2022-11-02T12:28:14.533Z,18.42
2022-11-02T12:30:57.296Z,18.43
2022-11-02T12:33:36.899Z,18.10
2022-11-02T12:36:22.617Z,18.01
2022-11-02T12:38:57.156Z,17.90
2022-11-02T12:41:44.297Z,17.82
2022-11-02T12:44:30.296Z,17.63
2022-11-02T12:47:08.931Z,17.49
2022-11-02T12:49:47.064Z,17.41
2022-11-02T12:52:30.824Z,17.31
2022-11-02T12:55:03.201Z,17.27
2022-11-02T12:57:37.374Z,17.14
2022-11-02T13:00:09.039Z,17.18
2022-11-02T13:02:51.116Z,17.20
2022-11-02T13:05:22.565Z,17.20
2022-11-02T13:08:03.145Z,17.25
2022-11-02T13:10:37.385Z,17.36
2022-11-02T13:13:06.600Z,17.52
2022-11-02T13:15:36.820Z,17.62
2022-11-02T13:18:13.073Z,17.65
2022-11-02T13:20:44.353Z,17.50
2022-11-02T13:23:23.526Z,17.33
2022-11-02T13:25:56.420Z,17.27
2022-11-02T13:28:35.330Z,17.17
2022-11-02T13:31:12.787Z,17.02
2022-11-02T13:33:47.833Z,16.94
2022-11-02T13:36:18.294Z,16.90
2022-11-02T13:38:53.388Z,16.92
2022-11-02T13:41:40.356Z,16.93
2022-11-02T13:44:30.807Z,16.88
2022-11-02T13:47:10.429Z,16.81
2022-11-02T13:49:41.642Z,16.84
2022-11-02T13:52:15.284Z,16.83
2022-11-02T13:54:47.852Z,16.91
2022-11-02T13:57:29.017Z,16.94
2022-11-02T13:59:57.593Z,17.07
2022-11-02T14:02:27.625Z,17.04
2022-11-02T14:04:56.215Z,16.99
2022-11-02T14:07:30.365Z,16.96
2022-11-02T14:10:06.003Z,16.97
2022-11-02T14:12:44.786Z,16.94
2022-11-02T14:15:49.853Z,16.94
2022-11-02T14:18:31.114Z,16.99
2022-11-02T14:21:20.296Z,17.05
2022-11-02T14:23:48.677Z,17.15
2022-11-02T14:26:54.673Z,17.23
2022-11-02T14:29:49.141Z,17.28
2022-11-02T14:32:27.232Z,17.24
2022-11-02T14:35:09.089Z,17.25
2022-11-02T14:37:58.401Z,17.24
2022-11-02T14:40:36.083Z,17.21
2022-11-02T14:43:30.703Z,17.50
2022-11-02T14:46:10.742Z,17.73
2022-11-02T14:48:49.005Z,17.89
2022-11-02T14:51:23.133Z,18.12
2022-11-02T14:53:58.220Z,18.18
2022-11-02T14:56:48.614Z,18.16
2022-11-02T14:59:21.517Z,18.17
2022-11-02T15:01:57.872Z,18.18
2022-11-02T15:04:27.294Z,18.14
2022-11-02T15:06:57.869Z,17.96
2022-11-02T15:09:58.417Z,17.97
2022-11-02T15:12:41.669Z,17.83
2022-11-02T15:15:34.679Z,17.69
2022-11-02T15:18:33.775Z,17.57
2022-11-02T15:21:29.914Z,17.55
2022-11-02T15:24:11.037Z,17.61
2022-11-02T15:26:48.461Z,17.55
2022-11-02T15:29:26.673Z,17.38
2022-11-02T15:31:59.092Z,17.15
2022-11-02T15:34:35.564Z,17.08
2022-11-02T15:37:05.257Z,16.88
2022-11-02T15:39:34.850Z,16.63
2022-11-02T15:42:14.729Z,16.41
2022-11-02T15:45:26.935Z,16.29
2022-11-02T15:48:16.025Z,16.15
2022-11-02T15:50:55.429Z,15.97
2022-11-02T15:53:47.601Z,15.75
2022-11-02T15:56:40.363Z,15.57
2022-11-02T15:59:33.324Z,15.44
2022-11-02T16:02:17.385Z,15.32
2022-11-02T16:04:49.675Z,15.16
2022-11-02T16:07:19.013Z,15.09
2022-11-02T16:09:48.078Z,14.93
2022-11-02T16:12:18.999Z,14.78
2022-11-02T16:14:54.287Z,14.69
2022-11-02T16:17:25.816Z,14.54
2022-11-02T16:20:12.210Z,14.52
2022-11-02T16:22:42.181Z,14.45
2022-11-02T16:25:15.229Z,14.41
2022-11-02T16:27:44.497Z,14.42
2022-11-02T16:30:20.588Z,14.30
2022-11-02T16:32:52.841Z,14.20
2022-11-02T16:35:22.626Z,14.13
2022-11-02T16:37:52.256Z,14.13
2022-11-02T16:40:21.760Z,14.13
2022-11-02T16:42:54.523Z,14.05
2022-11-02T16:45:42.294Z,13.99
2022-11-02T16:48:26.483Z,13.87
2022-11-02T16:51:11.961Z,13.72
2022-11-02T16:53:44.054Z,13.67
2022-11-02T16:56:27.623Z,13.63
2022-11-02T16:59:03.124Z,13.60
2022-11-02T17:01:38.854Z,13.57
2022-11-02T17:04:21.452Z,13.55
2022-11-02T17:06:54.758Z,13.41
2022-11-02T17:09:28.951Z,13.30
2022-11-02T17:12:00.468Z,13.29
2022-11-02T17:14:30.277Z,13.24
2022-11-02T17:17:04.674Z,13.06
2022-11-02T17:19:47.736Z,13.03
2022-11-02T17:22:25.066Z,13.05
2022-11-02T17:25:05.345Z,12.95
2022-11-02T17:27:39.187Z,12.80
2022-11-02T17:30:44.613Z,12.73
2022-11-02T17:33:34.673Z,12.67
2022-11-02T17:36:08.489Z,12.63
2022-11-02T17:38:39.551Z,12.58
2022-11-02T17:41:28.166Z,12.50
2022-11-02T17:43:56.208Z,12.55
2022-11-02T17:46:25.272Z,12.56
2022-11-02T17:48:54.793Z,12.58
2022-11-02T17:51:25.623Z,12.50
2022-11-02T17:53:56.012Z,12.45
2022-11-02T17:56:25.112Z,12.39
2022-11-02T17:58:54.140Z,12.37
2022-11-02T18:01:22.625Z,12.33
2022-11-02T18:03:51.834Z,12.26
2022-11-02T18:06:20.246Z,12.29
2022-11-02T18:09:07.008Z,12.26
2022-11-02T18:11:36.915Z,12.26
2022-11-02T18:14:05.731Z,12.21
2022-11-02T18:16:34.079Z,12.15
2022-11-02T18:19:03.455Z,12.11
2022-11-02T18:21:31.881Z,12.04
2022-11-02T18:24:00.684Z,11.94
2022-11-02T18:26:29.069Z,11.91
2022-11-02T18:28:59.205Z,11.89
2022-11-02T18:31:27.618Z,11.88
2022-11-02T18:33:56.646Z,11.81
2022-11-02T18:36:25.857Z,11.73
2022-11-02T18:38:54.231Z,11.75
2022-11-02T18:41:32.415Z,11.75
2022-11-02T18:44:08.861Z,11.67
2022-11-02T18:46:41.060Z,11.67
2022-11-02T18:49:09.437Z,11.67
2022-11-02T18:51:37.802Z,11.56
2022-11-02T18:54:07.448Z,11.49
2022-11-02T18:56:36.230Z,11.40
2022-11-02T18:59:06.766Z,11.41
2022-11-02T19:01:35.320Z,11.33
2022-11-02T19:04:04.289Z,11.24
2022-11-02T19:06:52.168Z,11.27
2022-11-02T19:09:24.314Z,11.30
2022-11-02T19:11:56.702Z,11.30
2022-11-02T19:14:27.884Z,11.30
2022-11-02T19:16:56.764Z,11.27
2022-11-02T19:19:25.303Z,11.19
2022-11-02T19:21:54.350Z,11.09
2022-11-02T19:24:22.749Z,10.88
2022-11-02T19:26:52.606Z,10.90
2022-11-02T19:29:21.119Z,10.94
2022-11-02T19:31:51.719Z,10.91
2022-11-02T19:34:20.440Z,10.90
2022-11-02T19:36:48.836Z,10.91
2022-11-02T19:39:17.555Z,10.90
2022-11-02T19:41:48.725Z,10.83
2022-11-02T19:44:17.405Z,10.84
2022-11-02T19:46:46.548Z,10.87
2022-11-02T19:49:16.919Z,10.89
2022-11-02T19:51:45.358Z,10.85
2022-11-02T19:54:14.352Z,10.77
2022-11-02T19:56:42.793Z,10.70
2022-11-02T19:59:12.140Z,10.65
2022-11-02T20:01:42.542Z,10.56
2022-11-02T20:04:12.037Z,10.57
2022-11-02T20:06:43.181Z,10.58
2022-11-02T20:09:15.898Z,10.57
2022-11-02T20:11:46.272Z,10.51
2022-11-02T20:14:16.331Z,10.54
2022-11-02T20:16:50.232Z,10.42
2022-11-02T20:19:27.002Z,10.26
2022-11-02T20:21:58.022Z,10.28
2022-11-02T20:24:26.847Z,10.28
2022-11-02T20:27:01.228Z,10.18
2022-11-02T20:29:30.688Z,10.16
2022-11-02T20:31:59.223Z,10.18
2022-11-02T20:34:28.325Z,10.18
2022-11-02T20:36:58.341Z,10.18
2022-11-02T20:39:27.126Z,10.15
2022-11-02T20:41:57.063Z,10.15
2022-11-02T20:44:25.511Z,10.18
2022-11-02T20:46:54.369Z,10.19
2022-11-02T20:49:48.860Z,10.17
2022-11-02T20:52:13.733Z,10.19
2022-11-02T20:54:42.593Z,10.17
2022-11-02T20:57:11.375Z,10.17
2022-11-02T20:59:39.892Z,10.12
2022-11-02T21:02:10.926Z,10.18
2022-11-02T21:04:40.256Z,10.23
2022-11-02T21:07:08.930Z,10.24
2022-11-02T21:09:38.692Z,10.26
2022-11-02T21:12:40.354Z,10.21
2022-11-02T21:15:09.490Z,10.13
2022-11-02T21:17:38.196Z,10.11
2022-11-02T21:23:00.369Z,9.99
2022-11-02T21:25:32.224Z,9.97
2022-11-02T21:28:01.189Z,9.92
2022-11-02T21:30:31.944Z,9.93
2022-11-02T21:33:00.845Z,9.90
2022-11-02T21:35:29.275Z,9.85
2022-11-02T21:38:01.352Z,9.84
2022-11-02T21:40:33.881Z,9.85
2022-11-02T21:43:02.378Z,9.89
2022-11-02T21:45:36.626Z,9.91
2022-11-02T21:48:06.502Z,9.94
2022-11-02T21:50:35.245Z,9.94
2022-11-02T21:53:03.793Z,9.81
2022-11-02T21:55:33.785Z,9.71
2022-11-02T21:58:03.259Z,9.73
2022-11-02T22:00:46.020Z,9.72
2022-11-02T22:03:14.498Z,9.64
2022-11-02T22:05:56.173Z,9.61
2022-11-02T22:08:39.916Z,9.61
2022-11-02T22:11:12.819Z,9.62
2022-11-02T22:13:42.219Z,9.54
2022-11-02T22:16:13.344Z,9.52
2022-11-02T22:18:43.001Z,9.34
2022-11-02T22:21:12.157Z,9.30
2022-11-02T22:23:41.119Z,9.34
2022-11-02T22:26:14.432Z,9.30
2022-11-02T22:28:45.215Z,9.27
2022-11-02T22:31:16.862Z,9.24
2022-11-02T22:33:45.674Z,9.18
2022-11-02T22:36:16.341Z,9.17
2022-11-02T22:38:51.880Z,9.13
2022-11-02T22:41:24.510Z,9.10
2022-11-02T22:43:55.061Z,9.10
2022-11-02T22:46:24.521Z,9.07
2022-11-02T22:48:55.371Z,9.02
2022-11-02T22:51:26.363Z,9.05
2022-11-02T22:53:55.198Z,9.06
2022-11-02T22:56:25.107Z,9.05
2022-11-02T22:58:54.285Z,8.99
2022-11-02T23:01:25.132Z,9.00
2022-11-02T23:03:54.260Z,8.96
2022-11-02T23:06:24.216Z,9.01
2022-11-02T23:08:55.160Z,9.02
2022-11-02T23:11:26.780Z,8.87
2022-11-02T23:13:58.614Z,8.85
2022-11-02T23:16:29.369Z,8.81
2022-11-02T23:19:20.634Z,8.78
2022-11-02T23:22:16.065Z,8.76
2022-11-02T23:25:04.046Z,8.72
2022-11-02T23:27:35.720Z,8.71
2022-11-02T23:30:22.429Z,8.68
2022-11-02T23:32:50.822Z,8.64
2022-11-02T23:35:37.561Z,8.61
2022-11-02T23:38:08.087Z,8.50
2022-11-02T23:40:36.432Z,8.54
2022-11-02T23:43:08.020Z,8.50
2022-11-02T23:45:36.529Z,8.52
2022-11-02T23:48:07.573Z,8.55
2022-11-02T23:50:54.789Z,8.57
2022-11-02T23:53:42.072Z,8.58
2022-11-02T23:56:33.545Z,8.48
2022-11-02T23:59:08.979Z,8.44
